createdAt,value
2022-08-25T00:01:14.411Z,16.60
2022-08-25T00:02:56.171Z,16.70
2022-08-25T00:04:30.194Z,16.70
2022-08-25T00:06:03.782Z,16.70
2022-08-25T00:07:38.148Z,16.70
2022-08-25T00:09:11.904Z,16.70
2022-08-25T00:10:45.112Z,16.60
2022-08-25T00:12:36.775Z,16.60
2022-08-25T00:14:11.679Z,16.50
2022-08-25T00:15:45.593Z,16.60
2022-08-25T00:17:20.556Z,16.60
2022-08-25T00:18:55.375Z,16.50
2022-08-25T00:20:30.343Z,16.50
2022-08-25T00:22:04.234Z,16.50
2022-08-25T00:23:37.360Z,16.50
2022-08-25T00:25:11.385Z,16.50
2022-08-25T00:26:45.761Z,16.40
2022-08-25T00:28:19.220Z,16.40
2022-08-25T00:29:52.535Z,16.40
2022-08-25T00:31:37.961Z,16.40
2022-08-25T00:33:14.705Z,16.40
2022-08-25T00:34:47.946Z,16.30
2022-08-25T00:36:20.958Z,16.30
2022-08-25T00:37:54.147Z,16.40
2022-08-25T00:39:27.712Z,16.30
2022-08-25T00:41:06.060Z,16.30
2022-08-25T00:42:40.196Z,16.30
2022-08-25T00:44:17.730Z,16.30
2022-08-25T00:45:51.063Z,16.30
2022-08-25T00:47:24.200Z,16.20
2022-08-25T00:49:02.892Z,16.30
2022-08-25T00:50:36.460Z,16.20
2022-08-25T00:52:13.784Z,16.20
2022-08-25T00:53:48.128Z,16.20
2022-08-25T00:55:26.127Z,16.20
2022-08-25T00:57:00.911Z,16.20
2022-08-25T00:58:35.487Z,16.20
2022-08-25T01:00:13.260Z,16.10
2022-08-25T01:01:45.696Z,16.10
2022-08-25T01:03:20.108Z,16.20
2022-08-25T01:04:54.638Z,16.10
2022-08-25T01:06:29.399Z,16.10
2022-08-25T01:08:06.525Z,16.10
2022-08-25T01:09:39.981Z,16.10
2022-08-25T01:11:15.103Z,16.10
2022-08-25T01:12:49.124Z,16.10
2022-08-25T01:14:24.495Z,16.10
2022-08-25T01:16:00.658Z,16.10
2022-08-25T01:17:45.936Z,16.10
2022-08-25T01:19:19.257Z,16.20
2022-08-25T01:20:54.526Z,16.20
2022-08-25T01:22:27.762Z,16.10
2022-08-25T01:24:02.270Z,16.10
2022-08-25T01:25:50.233Z,16.10
2022-08-25T01:27:23.455Z,16.10
2022-08-25T01:29:15.366Z,16.10
2022-08-25T01:30:49.079Z,16.10
2022-08-25T01:32:22.416Z,16.10
2022-08-25T01:33:54.530Z,16.10
2022-08-25T01:35:27.865Z,16.10
2022-08-25T01:37:02.689Z,16.10
2022-08-25T01:38:34.852Z,16.10
2022-08-25T01:40:09.186Z,16.00
2022-08-25T01:42:09.581Z,16.00
2022-08-25T01:43:42.718Z,16.10
2022-08-25T01:45:15.219Z,16.10
2022-08-25T01:46:48.432Z,16.10
2022-08-25T01:48:21.749Z,16.10
2022-08-25T01:49:54.899Z,16.10
2022-08-25T01:51:30.157Z,16.20
2022-08-25T01:53:09.138Z,16.30
2022-08-25T01:54:42.466Z,16.30
2022-08-25T01:56:17.841Z,16.30
2022-08-25T01:57:50.883Z,16.30
2022-08-25T01:59:24.578Z,16.40
2022-08-25T02:00:59.603Z,16.40
2022-08-25T02:02:33.020Z,16.40
2022-08-25T02:04:06.360Z,16.50
2022-08-25T02:05:41.206Z,16.50
2022-08-25T02:07:13.373Z,16.50
2022-08-25T02:08:52.245Z,16.50
2022-08-25T02:10:25.379Z,16.50
2022-08-25T02:11:59.205Z,16.40
2022-08-25T02:13:32.637Z,16.40
2022-08-25T02:15:07.074Z,16.50
2022-08-25T02:16:42.317Z,16.50
2022-08-25T02:18:14.574Z,16.50
2022-08-25T02:19:47.764Z,16.50
2022-08-25T02:21:19.914Z,16.60
2022-08-25T02:22:57.109Z,16.60
2022-08-25T02:24:30.815Z,16.60
2022-08-25T02:26:04.513Z,16.70
2022-08-25T02:27:37.628Z,16.70
2022-08-25T02:29:11.983Z,16.70
2022-08-25T02:30:46.038Z,16.70
2022-08-25T02:32:19.207Z,16.70
2022-08-25T02:33:51.917Z,16.70
2022-08-25T02:35:25.429Z,16.70
2022-08-25T02:36:58.619Z,16.70
2022-08-25T02:38:32.149Z,16.70
2022-08-25T02:40:08.231Z,16.80
2022-08-25T02:41:40.849Z,16.80
2022-08-25T02:43:13.942Z,16.90
2022-08-25T02:44:48.141Z,16.80
2022-08-25T02:46:23.436Z,16.70
2022-08-25T02:47:56.644Z,16.60
2022-08-25T02:49:30.238Z,16.60
2022-08-25T02:51:03.209Z,16.60
2022-08-25T02:52:36.739Z,16.60
2022-08-25T02:54:09.999Z,16.60
2022-08-25T02:55:44.563Z,16.60
2022-08-25T02:57:16.739Z,16.50
2022-08-25T02:58:49.890Z,16.50
2022-08-25T03:00:23.342Z,16.40
2022-08-25T03:01:56.624Z,16.30
2022-08-25T03:03:29.355Z,16.30
2022-08-25T03:05:02.618Z,16.30
2022-08-25T03:06:36.251Z,16.30
2022-08-25T03:08:08.585Z,16.30
2022-08-25T03:09:41.701Z,16.30
2022-08-25T03:11:15.163Z,16.20
2022-08-25T03:12:48.484Z,16.30
2022-08-25T03:14:21.620Z,16.30
2022-08-25T03:15:55.293Z,16.30
2022-08-25T03:17:29.513Z,16.20
2022-08-25T03:19:03.387Z,16.10
2022-08-25T03:20:38.579Z,16.10
2022-08-25T03:22:11.978Z,16.10
2022-08-25T03:23:44.860Z,16.00
2022-08-25T03:25:36.581Z,16.00
2022-08-25T03:27:11.095Z,15.90
2022-08-25T03:28:44.393Z,15.90
2022-08-25T03:30:17.720Z,15.80
2022-08-25T03:31:51.113Z,15.80
2022-08-25T03:33:23.303Z,15.90
2022-08-25T03:34:56.577Z,15.80
2022-08-25T03:36:30.335Z,15.90
2022-08-25T03:38:03.014Z,15.80
2022-08-25T03:39:36.280Z,15.80
2022-08-25T03:41:14.966Z,15.80
2022-08-25T03:42:49.428Z,15.70
2022-08-25T03:44:22.967Z,15.70
2022-08-25T03:45:56.100Z,15.70
2022-08-25T03:47:30.448Z,15.70
2022-08-25T03:49:05.935Z,15.70
2022-08-25T03:50:44.462Z,15.70
2022-08-25T03:52:24.471Z,15.70
2022-08-25T03:53:58.267Z,15.60
2022-08-25T03:55:31.354Z,15.60
2022-08-25T03:57:06.409Z,15.60
2022-08-25T03:58:40.842Z,15.50
2022-08-25T04:00:14.713Z,15.50
2022-08-25T04:01:54.032Z,15.50
2022-08-25T04:03:28.178Z,15.50
2022-08-25T04:05:01.659Z,15.50
2022-08-25T04:06:35.216Z,15.60
2022-08-25T04:08:09.153Z,15.60
2022-08-25T04:09:42.287Z,15.70
2022-08-25T04:11:18.678Z,15.70
2022-08-25T04:12:51.822Z,15.70
2022-08-25T04:14:26.378Z,15.70
2022-08-25T04:15:59.502Z,15.80
2022-08-25T04:17:32.885Z,15.90
2022-08-25T04:19:09.356Z,15.90
2022-08-25T04:20:46.603Z,16.00
2022-08-25T04:22:20.057Z,16.10
2022-08-25T04:23:54.827Z,16.20
2022-08-25T04:25:28.177Z,16.30
2022-08-25T04:27:01.425Z,16.30
2022-08-25T04:28:34.535Z,16.40
2022-08-25T04:30:10.830Z,16.40
2022-08-25T04:31:46.859Z,16.40
2022-08-25T04:33:22.071Z,16.40
2022-08-25T04:34:55.183Z,16.50
2022-08-25T04:36:27.492Z,16.70
2022-08-25T04:38:00.599Z,16.80
2022-08-25T04:39:33.940Z,16.90
2022-08-25T04:41:07.152Z,17.00
2022-08-25T04:42:40.593Z,17.10
2022-08-25T04:44:13.790Z,17.20
2022-08-25T04:45:48.385Z,17.30
2022-08-25T04:47:21.570Z,17.30
2022-08-25T04:48:57.796Z,17.40
2022-08-25T04:50:31.227Z,17.50
2022-08-25T04:52:06.346Z,17.30
2022-08-25T04:53:46.931Z,17.30
2022-08-25T04:55:20.136Z,17.40
2022-08-25T04:56:54.614Z,17.50
2022-08-25T04:58:32.011Z,17.60
2022-08-25T05:00:07.246Z,17.70
2022-08-25T05:01:43.190Z,17.90
2022-08-25T05:03:16.778Z,17.90
2022-08-25T05:04:49.998Z,18.00
2022-08-25T05:06:23.630Z,18.10
2022-08-25T05:07:56.746Z,18.30
2022-08-25T05:09:32.134Z,18.60
2022-08-25T05:11:06.941Z,19.00
2022-08-25T05:12:40.356Z,19.60
2022-08-25T05:14:15.413Z,19.80
2022-08-25T05:15:54.589Z,20.30
2022-08-25T05:17:29.073Z,20.80
2022-08-25T05:19:01.200Z,21.10
2022-08-25T05:20:37.758Z,21.10
2022-08-25T05:22:10.889Z,21.00
2022-08-25T05:23:43.582Z,20.90
2022-08-25T05:25:16.813Z,20.70
2022-08-25T05:26:50.163Z,20.50
2022-08-25T05:28:23.543Z,20.50
2022-08-25T05:29:56.645Z,20.60
2022-08-25T05:31:30.475Z,20.50
2022-08-25T05:33:05.052Z,20.50
2022-08-25T05:34:38.506Z,20.50
2022-08-25T05:36:13.699Z,20.40
2022-08-25T05:37:46.840Z,20.30
2022-08-25T05:39:20.003Z,19.80
2022-08-25T05:40:54.849Z,19.90
2022-08-25T05:42:28.258Z,19.80
2022-08-25T05:44:01.548Z,19.80
2022-08-25T05:45:34.711Z,20.70
2022-08-25T05:47:08.161Z,21.10
2022-08-25T05:48:42.144Z,21.70
2022-08-25T05:50:15.507Z,22.50
2022-08-25T05:51:48.702Z,23.20
2022-08-25T05:53:22.834Z,23.20
2022-08-25T05:54:56.066Z,23.40
2022-08-25T05:56:29.163Z,22.90
2022-08-25T05:58:02.364Z,22.30
2022-08-25T05:59:36.038Z,21.90
2022-08-25T06:01:26.704Z,22.10
2022-08-25T06:02:59.932Z,22.10
2022-08-25T06:04:33.545Z,22.80
2022-08-25T06:06:07.613Z,23.90
2022-08-25T06:07:41.072Z,24.50
2022-08-25T06:09:14.391Z,24.60
2022-08-25T06:10:52.651Z,24.20
2022-08-25T06:12:25.787Z,24.00
2022-08-25T06:13:58.956Z,23.00
2022-08-25T06:15:33.586Z,23.40
2022-08-25T06:17:06.834Z,24.30
2022-08-25T06:18:40.193Z,25.40
2022-08-25T06:20:17.822Z,26.40
2022-08-25T06:21:54.315Z,26.50
2022-08-25T06:23:27.475Z,26.40
2022-08-25T06:25:00.624Z,26.70
2022-08-25T06:26:36.242Z,27.20
2022-08-25T06:28:09.342Z,27.30
2022-08-25T06:29:42.420Z,27.00
2022-08-25T06:31:16.182Z,27.10
2022-08-25T06:32:49.421Z,27.10
2022-08-25T06:34:24.037Z,28.30
2022-08-25T06:35:59.528Z,28.10
2022-08-25T06:37:33.223Z,28.50
2022-08-25T06:39:06.365Z,27.90
2022-08-25T06:40:39.637Z,28.60
2022-08-25T06:42:12.723Z,29.60
2022-08-25T06:43:49.881Z,30.20
2022-08-25T06:45:24.924Z,29.70
2022-08-25T06:46:58.499Z,29.20
2022-08-25T06:48:31.657Z,29.50
2022-08-25T06:50:06.062Z,30.10
2022-08-25T06:51:41.942Z,30.60
2022-08-25T06:53:15.052Z,31.00
2022-08-25T06:54:49.150Z,31.30
2022-08-25T06:56:23.169Z,30.90
2022-08-25T06:57:57.169Z,27.40
2022-08-25T06:59:32.236Z,25.80
2022-08-25T07:01:15.013Z,25.50
2022-08-25T07:02:49.161Z,25.60
2022-08-25T07:04:26.894Z,25.10
2022-08-25T07:06:00.121Z,24.80
2022-08-25T07:07:44.039Z,25.70
2022-08-25T07:09:17.949Z,26.30
2022-08-25T07:10:51.260Z,25.50
2022-08-25T07:12:25.053Z,25.50
2022-08-25T07:13:58.657Z,25.40
2022-08-25T07:15:31.729Z,25.80
2022-08-25T07:17:12.028Z,26.20
2022-08-25T07:18:46.405Z,26.40
2022-08-25T07:20:19.806Z,25.80
2022-08-25T07:21:55.048Z,25.80
2022-08-25T07:23:30.050Z,25.40
2022-08-25T07:25:03.531Z,25.50
2022-08-25T07:26:38.762Z,26.10
2022-08-25T07:28:12.366Z,26.70
2022-08-25T07:29:45.784Z,25.90
2022-08-25T07:31:19.704Z,25.60
2022-08-25T07:32:55.283Z,25.40
2022-08-25T07:34:52.562Z,25.50
2022-08-25T07:36:26.344Z,25.30
2022-08-25T07:38:00.608Z,25.20
2022-08-25T07:39:35.803Z,24.30
2022-08-25T07:41:08.911Z,24.50
2022-08-25T07:42:43.793Z,25.70
2022-08-25T07:44:16.945Z,25.60
2022-08-25T07:45:50.267Z,25.10
2022-08-25T07:47:23.367Z,26.30
2022-08-25T07:48:56.608Z,26.00
2022-08-25T07:50:31.287Z,27.30
2022-08-25T07:52:06.701Z,28.20
2022-08-25T07:53:40.228Z,28.70
2022-08-25T07:55:17.990Z,29.50
2022-08-25T07:56:51.563Z,29.70
2022-08-25T07:58:26.001Z,29.70
2022-08-25T08:00:00.065Z,29.90
2022-08-25T08:01:33.403Z,29.60
2022-08-25T08:03:15.974Z,29.00
2022-08-25T08:04:57.172Z,29.00
2022-08-25T08:06:30.480Z,29.20
2022-08-25T08:08:04.187Z,29.30
2022-08-25T08:09:38.318Z,29.00
2022-08-25T08:11:18.262Z,28.00
2022-08-25T08:12:52.145Z,28.00
2022-08-25T08:14:25.433Z,28.00
2022-08-25T08:15:58.604Z,27.40
2022-08-25T08:17:31.897Z,27.30
2022-08-25T08:19:06.093Z,27.50
2022-08-25T08:20:42.306Z,27.70
2022-08-25T08:22:16.490Z,28.00
2022-08-25T08:23:58.070Z,28.10
2022-08-25T08:25:31.935Z,28.00
2022-08-25T08:27:08.284Z,27.90
2022-08-25T08:28:41.506Z,27.40
2022-08-25T08:30:15.804Z,27.20
2022-08-25T08:31:49.077Z,27.20
2022-08-25T08:33:24.552Z,26.50
2022-08-25T08:34:57.726Z,26.60
2022-08-25T08:36:31.412Z,26.00
2022-08-25T08:38:07.871Z,25.50
2022-08-25T08:39:46.965Z,25.80
2022-08-25T08:42:11.563Z,26.60
2022-08-25T08:43:48.024Z,27.40
2022-08-25T08:45:35.413Z,27.50
2022-08-25T08:47:20.457Z,27.30
2022-08-25T08:49:02.889Z,27.30
2022-08-25T08:50:43.978Z,27.60
2022-08-25T08:52:20.761Z,27.60
2022-08-25T08:53:57.227Z,27.50
2022-08-25T08:55:34.226Z,26.70
2022-08-25T08:57:12.899Z,27.00
2022-08-25T08:58:51.444Z,27.50
2022-08-25T09:00:25.509Z,27.80
2022-08-25T09:02:01.093Z,28.50
2022-08-25T09:03:39.690Z,28.60
2022-08-25T09:05:16.837Z,29.10
2022-08-25T09:06:51.635Z,29.50
2022-08-25T09:08:24.808Z,30.00
2022-08-25T09:10:00.037Z,29.50
2022-08-25T09:11:46.576Z,29.10
2022-08-25T09:13:27.798Z,28.70
2022-08-25T09:15:12.894Z,28.60
2022-08-25T09:16:57.086Z,28.70
2022-08-25T09:18:50.755Z,28.80
2022-08-25T09:20:47.823Z,28.80
2022-08-25T09:22:35.549Z,29.10
2022-08-25T09:24:24.217Z,30.60
2022-08-25T09:26:18.339Z,29.90
2022-08-25T09:28:04.740Z,29.10
2022-08-25T09:29:49.772Z,28.40
2022-08-25T09:31:29.731Z,28.60
2022-08-25T09:33:05.174Z,29.50
2022-08-25T09:34:38.678Z,30.90
2022-08-25T09:36:11.882Z,32.10
2022-08-25T09:37:56.053Z,30.80
2022-08-25T09:39:31.467Z,30.10
2022-08-25T09:41:05.319Z,30.50
2022-08-25T09:42:50.268Z,31.40
2022-08-25T09:44:26.172Z,31.10
2022-08-25T09:46:02.011Z,29.40
2022-08-25T09:47:45.318Z,29.10
2022-08-25T09:49:19.722Z,29.40
2022-08-25T09:51:01.331Z,29.80
2022-08-25T09:52:38.390Z,30.50
2022-08-25T09:54:20.984Z,30.70
2022-08-25T09:56:04.554Z,31.00
2022-08-25T09:57:46.609Z,32.10
2022-08-25T09:59:34.709Z,32.90
2022-08-25T10:01:15.394Z,32.80
2022-08-25T10:03:09.222Z,30.70
2022-08-25T10:04:42.619Z,30.00
2022-08-25T10:06:19.772Z,30.10
2022-08-25T10:07:57.471Z,30.90
2022-08-25T10:09:34.746Z,31.50
2022-08-25T10:11:13.082Z,31.50
2022-08-25T10:12:51.191Z,31.50
2022-08-25T10:14:35.178Z,32.10
2022-08-25T10:16:24.261Z,31.70
2022-08-25T10:18:20.885Z,32.40
2022-08-25T10:19:55.752Z,32.70
2022-08-25T10:21:30.225Z,32.50
2022-08-25T10:23:13.130Z,31.70
2022-08-25T10:24:46.406Z,31.30
2022-08-25T10:26:34.833Z,30.20
2022-08-25T10:28:17.004Z,29.10
2022-08-25T10:30:14.457Z,28.50
2022-08-25T10:31:53.011Z,28.70
2022-08-25T10:33:36.725Z,29.40
2022-08-25T10:35:14.812Z,29.80
2022-08-25T10:36:59.538Z,30.30
2022-08-25T10:38:39.833Z,30.30
2022-08-25T10:40:22.763Z,30.10
2022-08-25T10:42:04.567Z,30.20
2022-08-25T10:43:44.627Z,30.40
2022-08-25T10:45:39.368Z,29.90
2022-08-25T10:47:48.688Z,29.60
2022-08-25T10:49:35.001Z,30.30
2022-08-25T10:51:25.534Z,31.20
2022-08-25T10:53:12.691Z,31.10
2022-08-25T10:54:54.835Z,31.60
2022-08-25T10:56:34.876Z,32.20
2022-08-25T10:58:23.265Z,32.00
2022-08-25T11:00:05.309Z,32.00
2022-08-25T11:01:53.646Z,32.40
2022-08-25T11:03:44.876Z,33.30
2022-08-25T11:05:26.602Z,33.60
2022-08-25T11:07:04.148Z,32.50
2022-08-25T11:08:42.260Z,31.60
2022-08-25T11:10:21.285Z,31.20
2022-08-25T11:11:58.597Z,31.40
2022-08-25T11:13:41.737Z,32.10
2022-08-25T11:15:22.973Z,32.60
2022-08-25T11:17:02.026Z,32.70
2022-08-25T11:18:36.596Z,32.80
2022-08-25T11:20:19.803Z,33.00
2022-08-25T11:22:07.236Z,33.50
2022-08-25T11:23:45.437Z,34.40
2022-08-25T11:25:22.365Z,35.50
2022-08-25T11:26:57.965Z,34.80
2022-08-25T11:28:35.671Z,33.60
2022-08-25T11:30:11.703Z,33.00
2022-08-25T11:31:52.842Z,32.30
2022-08-25T11:33:29.795Z,31.80
2022-08-25T11:35:05.259Z,32.10
2022-08-25T11:36:41.429Z,32.50
2022-08-25T11:38:34.193Z,32.70
2022-08-25T11:40:31.748Z,33.10
2022-08-25T11:42:19.112Z,32.40
2022-08-25T11:44:10.476Z,31.00
2022-08-25T11:46:05.090Z,31.10
2022-08-25T11:47:52.351Z,31.00
2022-08-25T11:49:50.150Z,30.70
2022-08-25T11:51:33.797Z,30.30
2022-08-25T11:53:28.102Z,30.40
2022-08-25T11:55:07.360Z,30.40
2022-08-25T11:56:43.171Z,30.00
2022-08-25T11:58:35.217Z,30.00
2022-08-25T12:00:13.804Z,30.10
2022-08-25T12:02:28.989Z,30.70
2022-08-25T12:04:17.338Z,31.80
2022-08-25T12:05:53.924Z,32.90
2022-08-25T12:08:12.348Z,33.40
2022-08-25T12:10:19.353Z,33.00
2022-08-25T12:11:55.600Z,32.80
2022-08-25T12:13:45.096Z,32.70
2022-08-25T12:15:22.514Z,33.10
2022-08-25T12:17:11.998Z,33.50
2022-08-25T12:18:50.452Z,33.40
2022-08-25T12:21:02.545Z,33.50
2022-08-25T12:23:01.385Z,34.00
2022-08-25T12:24:52.718Z,33.90
2022-08-25T12:26:36.266Z,34.30
2022-08-25T12:28:36.740Z,34.10
2022-08-25T12:30:20.648Z,34.00
2022-08-25T12:32:21.361Z,33.40
2022-08-25T12:34:10.361Z,32.20
2022-08-25T12:35:57.707Z,31.00
2022-08-25T12:37:32.463Z,30.40
2022-08-25T12:39:24.607Z,30.10
2022-08-25T12:41:02.967Z,29.90
2022-08-25T12:42:40.053Z,29.90
2022-08-25T12:44:35.588Z,30.10
2022-08-25T12:46:35.133Z,30.60
2022-08-25T12:48:43.847Z,31.70
2022-08-25T12:50:31.967Z,32.40
2022-08-25T12:52:08.306Z,32.70
2022-08-25T12:53:47.968Z,32.70
2022-08-25T12:55:23.395Z,32.10
2022-08-25T12:56:58.737Z,31.40
2022-08-25T12:59:00.317Z,31.10
2022-08-25T13:00:47.429Z,30.80
2022-08-25T13:02:57.594Z,30.80
2022-08-25T13:04:58.041Z,31.20
2022-08-25T13:07:02.866Z,31.80
2022-08-25T13:09:03.692Z,31.20
2022-08-25T13:10:48.031Z,32.00
2022-08-25T13:12:27.946Z,32.00
2022-08-25T13:14:08.950Z,32.70
2022-08-25T13:15:47.162Z,33.50
2022-08-25T13:17:28.300Z,33.30
2022-08-25T13:19:07.080Z,32.10
2022-08-25T13:20:40.329Z,32.40
2022-08-25T13:22:20.784Z,33.30
2022-08-25T13:24:01.260Z,33.60
2022-08-25T13:25:50.173Z,33.70
2022-08-25T13:27:27.546Z,34.00
2022-08-25T13:29:12.749Z,33.90
2022-08-25T13:31:03.065Z,33.70
2022-08-25T13:32:38.972Z,33.70
2022-08-25T13:34:20.922Z,33.80
2022-08-25T13:36:16.108Z,34.50
2022-08-25T13:37:48.477Z,34.70
2022-08-25T13:39:38.947Z,34.60
2022-08-25T13:41:28.946Z,34.30
2022-08-25T13:43:06.656Z,34.10
2022-08-25T13:44:42.190Z,33.20
2022-08-25T13:46:25.533Z,32.50
2022-08-25T13:47:59.706Z,32.00
2022-08-25T13:49:33.073Z,31.70
2022-08-25T13:51:21.559Z,31.30
2022-08-25T13:52:57.891Z,31.20
2022-08-25T13:54:39.146Z,32.00
2022-08-25T13:56:25.591Z,32.20
2022-08-25T13:58:00.713Z,33.50
2022-08-25T13:59:40.248Z,34.10
2022-08-25T14:01:23.581Z,34.20
2022-08-25T14:03:31.653Z,33.30
2022-08-25T14:05:07.374Z,31.80
2022-08-25T14:06:44.141Z,32.10
2022-08-25T14:08:32.247Z,32.70
2022-08-25T14:10:09.115Z,32.90
2022-08-25T14:11:45.502Z,32.70
2022-08-25T14:13:33.071Z,32.60
2022-08-25T14:15:12.950Z,32.20
2022-08-25T14:16:51.582Z,32.20
2022-08-25T14:18:33.478Z,32.10
2022-08-25T14:20:07.805Z,32.00
2022-08-25T14:21:42.081Z,32.10
2022-08-25T14:23:20.095Z,32.20
2022-08-25T14:24:55.000Z,32.30
2022-08-25T14:26:28.651Z,32.00
2022-08-25T14:28:16.319Z,31.80
2022-08-25T14:29:52.813Z,31.50
2022-08-25T14:31:29.374Z,31.40
2022-08-25T14:33:05.061Z,31.00
2022-08-25T14:34:41.738Z,30.60
2022-08-25T14:36:15.123Z,30.30
2022-08-25T14:37:54.377Z,30.40
2022-08-25T14:39:28.068Z,30.50
2022-08-25T14:41:01.571Z,30.50
2022-08-25T14:42:34.760Z,30.50
2022-08-25T14:44:09.569Z,30.50
2022-08-25T14:45:45.287Z,30.50
2022-08-25T14:47:20.556Z,30.60
2022-08-25T14:48:59.587Z,30.60
2022-08-25T14:50:33.489Z,30.50
2022-08-25T14:52:11.037Z,30.50
2022-08-25T14:53:46.344Z,30.60
2022-08-25T14:55:31.180Z,30.60
2022-08-25T14:57:08.408Z,30.70
2022-08-25T14:58:51.238Z,30.70
2022-08-25T15:00:27.566Z,30.70
2022-08-25T15:02:01.613Z,30.50
2022-08-25T15:03:39.260Z,30.50
2022-08-25T15:05:16.617Z,30.60
2022-08-25T15:06:52.359Z,30.90
2022-08-25T15:08:43.057Z,31.00
2022-08-25T15:10:15.216Z,30.90
2022-08-25T15:11:50.966Z,31.10
2022-08-25T15:13:24.168Z,30.90
2022-08-25T15:14:58.154Z,30.50
2022-08-25T15:16:35.319Z,30.40
2022-08-25T15:18:10.021Z,30.20
2022-08-25T15:19:44.059Z,29.90
2022-08-25T15:21:20.667Z,29.80
2022-08-25T15:22:53.791Z,29.70
2022-08-25T15:24:29.136Z,29.70
2022-08-25T15:26:02.491Z,29.70
2022-08-25T15:27:38.483Z,29.70
2022-08-25T15:29:11.895Z,29.60
2022-08-25T15:30:45.921Z,29.70
2022-08-25T15:32:19.456Z,29.60
2022-08-25T15:33:53.543Z,29.30
2022-08-25T15:35:29.059Z,29.40
2022-08-25T15:37:10.603Z,29.40
2022-08-25T15:38:45.400Z,29.40
2022-08-25T15:40:19.703Z,29.40
2022-08-25T15:41:53.148Z,29.30
2022-08-25T15:43:26.275Z,29.20
2022-08-25T15:44:59.421Z,29.10
2022-08-25T15:46:32.727Z,29.00
2022-08-25T15:48:09.283Z,28.80
2022-08-25T15:49:43.123Z,28.70
2022-08-25T15:51:17.798Z,28.60
2022-08-25T15:52:52.325Z,28.70
2022-08-25T15:54:27.082Z,28.70
2022-08-25T15:56:00.593Z,28.70
2022-08-25T15:57:39.873Z,28.60
2022-08-25T15:59:16.002Z,28.60
2022-08-25T16:00:56.041Z,28.70
2022-08-25T16:02:29.836Z,28.70
2022-08-25T16:04:03.460Z,28.80
2022-08-25T16:05:37.528Z,28.80
2022-08-25T16:07:13.273Z,28.80
2022-08-25T16:08:48.279Z,28.70
2022-08-25T16:10:21.869Z,28.50
2022-08-25T16:11:56.478Z,28.40
2022-08-25T16:13:30.893Z,28.20
2022-08-25T16:15:05.756Z,28.10
2022-08-25T16:16:39.650Z,28.20
2022-08-25T16:18:13.770Z,28.20
2022-08-25T16:19:46.955Z,28.10
2022-08-25T16:21:25.676Z,28.00
2022-08-25T16:23:03.936Z,28.00
2022-08-25T16:24:39.968Z,28.00
2022-08-25T16:26:15.837Z,28.00
2022-08-25T16:27:48.006Z,28.00
2022-08-25T16:29:21.629Z,28.10
2022-08-25T16:30:55.504Z,28.00
2022-08-25T16:32:28.640Z,28.00
2022-08-25T16:34:02.368Z,27.90
2022-08-25T16:35:40.556Z,27.80
2022-08-25T16:37:14.276Z,27.80
2022-08-25T16:38:49.253Z,27.80
2022-08-25T16:40:26.432Z,27.70
2022-08-25T16:41:59.694Z,27.70
2022-08-25T16:43:32.858Z,27.70
2022-08-25T16:45:06.936Z,27.50
2022-08-25T16:46:42.129Z,27.50
2022-08-25T16:48:17.511Z,27.40
2022-08-25T16:49:51.331Z,27.40
2022-08-25T16:51:29.508Z,27.40
2022-08-25T16:53:22.281Z,27.40
2022-08-25T16:55:16.122Z,27.20
2022-08-25T16:56:54.836Z,27.20
2022-08-25T16:58:30.095Z,27.10
2022-08-25T17:00:06.059Z,27.10
2022-08-25T17:01:40.855Z,27.00
2022-08-25T17:03:14.212Z,26.90
2022-08-25T17:04:48.987Z,26.80
2022-08-25T17:06:23.631Z,26.80
2022-08-25T17:08:14.881Z,26.80
2022-08-25T17:09:48.113Z,26.70
2022-08-25T17:11:23.326Z,26.70
2022-08-25T17:12:58.176Z,26.70
2022-08-25T17:14:31.300Z,26.60
2022-08-25T17:16:05.007Z,26.60
2022-08-25T17:17:38.229Z,26.60
2022-08-25T17:19:15.246Z,26.60
2022-08-25T17:20:48.675Z,26.50
2022-08-25T17:22:24.425Z,26.50
2022-08-25T17:23:59.415Z,26.40
2022-08-25T17:25:34.456Z,26.40
2022-08-25T17:27:07.784Z,26.30
2022-08-25T17:28:42.957Z,26.20
2022-08-25T17:30:16.841Z,26.20
2022-08-25T17:31:51.081Z,26.10
2022-08-25T17:33:25.189Z,26.00
2022-08-25T17:35:01.092Z,26.00
2022-08-25T17:36:38.098Z,25.90
2022-08-25T17:38:13.681Z,25.80
2022-08-25T17:39:50.011Z,25.80
2022-08-25T17:41:23.855Z,25.80
2022-08-25T17:42:57.003Z,25.70
2022-08-25T17:44:31.791Z,25.70
2022-08-25T17:46:05.969Z,25.60
2022-08-25T17:47:39.089Z,25.60
2022-08-25T17:49:12.445Z,25.50
2022-08-25T17:50:46.456Z,25.40
2022-08-25T17:52:22.518Z,25.40
2022-08-25T17:53:58.802Z,25.40
2022-08-25T17:55:32.203Z,25.30
2022-08-25T17:57:05.412Z,25.20
2022-08-25T17:58:39.296Z,25.20
2022-08-25T18:00:16.811Z,25.10
2022-08-25T18:01:55.548Z,25.00
2022-08-25T18:03:29.349Z,25.00
2022-08-25T18:05:04.480Z,24.90
2022-08-25T18:06:37.880Z,24.90
2022-08-25T18:08:11.079Z,24.90
2022-08-25T18:09:44.562Z,24.80
2022-08-25T18:11:18.377Z,24.80
2022-08-25T18:12:51.681Z,24.70
2022-08-25T18:14:25.905Z,24.70
2022-08-25T18:16:00.551Z,24.70
2022-08-25T18:17:34.298Z,24.70
2022-08-25T18:19:09.569Z,24.60
2022-08-25T18:20:45.859Z,24.60
2022-08-25T18:22:20.740Z,24.60
2022-08-25T18:23:55.869Z,24.60
2022-08-25T18:25:29.661Z,24.60
2022-08-25T18:27:03.123Z,24.60
2022-08-25T18:28:36.416Z,24.50
2022-08-25T18:30:10.772Z,24.50
2022-08-25T18:31:48.522Z,24.50
2022-08-25T18:33:21.849Z,24.40
2022-08-25T18:34:56.245Z,24.40
2022-08-25T18:36:30.000Z,24.40
2022-08-25T18:38:21.234Z,24.30
2022-08-25T18:40:12.035Z,24.30
2022-08-25T18:41:47.377Z,24.30
2022-08-25T18:43:20.467Z,24.20
2022-08-25T18:44:53.612Z,24.20
2022-08-25T18:46:26.808Z,24.20
2022-08-25T18:48:02.410Z,24.10
2022-08-25T18:49:35.883Z,24.10
2022-08-25T18:51:10.444Z,24.10
2022-08-25T18:52:43.685Z,24.10
2022-08-25T18:54:23.254Z,24.00
2022-08-25T18:55:58.039Z,24.00
2022-08-25T18:57:31.359Z,24.00
2022-08-25T18:59:04.690Z,23.90
2022-08-25T19:00:42.461Z,23.90
2022-08-25T19:02:15.707Z,23.80
2022-08-25T19:03:51.035Z,23.80
2022-08-25T19:05:27.316Z,23.70
2022-08-25T19:07:02.904Z,23.60
2022-08-25T19:08:36.519Z,23.50
2022-08-25T19:10:10.568Z,23.30
2022-08-25T19:11:46.189Z,23.30
2022-08-25T19:13:22.653Z,23.20
2022-08-25T19:14:56.410Z,23.10
2022-08-25T19:16:35.722Z,23.00
2022-08-25T19:18:09.969Z,23.00
2022-08-25T19:19:45.518Z,22.90
2022-08-25T19:21:22.514Z,22.80
2022-08-25T19:22:56.447Z,22.80
2022-08-25T19:24:31.185Z,22.70
2022-08-25T19:26:04.638Z,22.70
2022-08-25T19:27:38.368Z,22.60
2022-08-25T19:29:14.308Z,22.50
2022-08-25T19:30:50.647Z,22.50
2022-08-25T19:32:24.165Z,22.40
2022-08-25T19:33:59.173Z,22.30
2022-08-25T19:35:41.034Z,22.30
2022-08-25T19:37:16.176Z,22.30
2022-08-25T19:38:51.704Z,22.20
2022-08-25T19:40:28.148Z,22.20
2022-08-25T19:42:03.333Z,22.20
2022-08-25T19:43:36.546Z,22.10
2022-08-25T19:45:13.352Z,22.00
2022-08-25T19:46:47.885Z,22.00
2022-08-25T19:48:24.037Z,22.00
2022-08-25T19:49:58.343Z,22.00
2022-08-25T19:51:32.933Z,21.90
2022-08-25T19:53:07.674Z,22.00
2022-08-25T19:54:45.637Z,21.90
2022-08-25T19:56:18.804Z,21.90
2022-08-25T19:57:52.773Z,21.90
2022-08-25T19:59:34.117Z,21.90
2022-08-25T20:01:14.168Z,21.80
2022-08-25T20:02:52.015Z,21.80
2022-08-25T20:04:25.259Z,21.80
2022-08-25T20:05:58.948Z,21.80
2022-08-25T20:07:35.991Z,21.70
2022-08-25T20:09:21.131Z,21.70
2022-08-25T20:11:03.188Z,21.70
2022-08-25T20:12:36.403Z,21.60
2022-08-25T20:14:10.322Z,21.60
2022-08-25T20:15:43.923Z,21.60
2022-08-25T20:17:23.971Z,21.60
2022-08-25T20:19:00.027Z,21.60
2022-08-25T20:20:34.674Z,21.70
2022-08-25T20:22:08.744Z,21.70
2022-08-25T20:24:03.343Z,21.80
2022-08-25T20:25:36.772Z,21.80
2022-08-25T20:27:10.246Z,21.70
2022-08-25T20:28:43.357Z,21.70
2022-08-25T20:30:22.006Z,21.60
2022-08-25T20:31:54.696Z,21.60
2022-08-25T20:33:29.679Z,21.50
2022-08-25T20:35:03.029Z,21.50
2022-08-25T20:36:38.818Z,21.50
2022-08-25T20:38:22.914Z,21.50
2022-08-25T20:39:57.544Z,21.40
2022-08-25T20:41:31.148Z,21.40
2022-08-25T20:43:04.876Z,21.40
2022-08-25T20:44:43.568Z,21.30
2022-08-25T20:46:19.031Z,21.30
2022-08-25T20:47:52.986Z,21.20
2022-08-25T20:49:26.751Z,21.20
2022-08-25T20:51:00.313Z,21.20
2022-08-25T20:52:33.632Z,21.20
2022-08-25T20:54:08.633Z,21.20
2022-08-25T20:55:43.921Z,21.20